createdAt,value
2018-04-22T00:01:06.042Z,16.70
2018-04-22T00:03:33.505Z,16.70
2018-04-22T00:06:00.955Z,16.60
2018-04-22T00:08:28.408Z,16.60
2018-04-22T00:10:55.867Z,16.60
2018-04-22T00:13:23.326Z,16.50
2018-04-22T00:15:50.775Z,16.50
2018-04-22T00:18:18.236Z,16.60
2018-04-22T00:20:45.697Z,16.60
2018-04-22T00:23:13.173Z,16.50
2018-04-22T00:25:40.620Z,16.40
2018-04-22T00:28:08.070Z,16.30
2018-04-22T00:30:35.525Z,16.20
2018-04-22T00:33:02.991Z,16.10
2018-04-22T00:35:30.448Z,16.20
2018-04-22T00:37:57.903Z,16.30
2018-04-22T00:40:25.354Z,16.30
2018-04-22T00:42:52.810Z,16.40
2018-04-22T00:45:22.157Z,16.50
2018-04-22T00:47:50.632Z,16.50
2018-04-22T00:50:18.851Z,16.40
2018-04-22T00:52:46.303Z,16.30
2018-04-22T00:55:13.758Z,16.10
2018-04-22T00:57:41.211Z,15.90
2018-04-22T01:00:08.655Z,15.80
2018-04-22T01:02:36.107Z,15.70
2018-04-22T01:05:03.561Z,15.70
2018-04-22T01:07:31.020Z,15.70
2018-04-22T01:09:58.479Z,15.60
2018-04-22T01:12:25.933Z,15.40
2018-04-22T01:14:53.404Z,15.40
2018-04-22T01:17:20.848Z,15.40
2018-04-22T01:19:48.301Z,15.40
2018-04-22T01:22:15.753Z,15.40
2018-04-22T01:24:43.211Z,15.50
2018-04-22T01:27:11.434Z,15.70
2018-04-22T01:29:38.887Z,15.60
2018-04-22T01:32:06.335Z,15.80
2018-04-22T01:34:33.779Z,15.80
2018-04-22T01:37:01.234Z,15.70
2018-04-22T01:39:28.683Z,15.80
2018-04-22T01:41:56.140Z,15.80
2018-04-22T01:44:23.592Z,15.60
2018-04-22T01:46:51.047Z,15.50
2018-04-22T01:49:18.496Z,15.50
2018-04-22T01:51:46.709Z,15.50
2018-04-22T01:54:14.155Z,15.40
2018-04-22T01:56:41.596Z,15.40
2018-04-22T01:59:09.040Z,15.40
2018-04-22T02:01:36.495Z,15.30
2018-04-22T02:04:04.729Z,15.40
2018-04-22T02:06:32.171Z,15.30
2018-04-22T02:08:59.621Z,15.30
2018-04-22T02:11:27.072Z,15.50
2018-04-22T02:13:54.520Z,15.30
2018-04-22T02:16:21.972Z,15.30
2018-04-22T02:18:49.438Z,15.50
2018-04-22T02:21:16.888Z,15.40
2018-04-22T02:23:44.348Z,15.10
2018-04-22T02:26:11.807Z,14.80
2018-04-22T02:28:39.261Z,14.60
2018-04-22T02:31:06.729Z,14.50
2018-04-22T02:33:34.180Z,14.50
2018-04-22T02:36:01.643Z,14.50
2018-04-22T02:38:29.098Z,14.40
2018-04-22T02:40:56.547Z,14.30
2018-04-22T02:43:24.003Z,14.40
2018-04-22T02:45:51.456Z,14.50
2018-04-22T02:48:18.919Z,14.30
2018-04-22T02:50:46.389Z,14.10
2018-04-22T02:53:13.841Z,14.00
2018-04-22T02:55:41.287Z,13.90
2018-04-22T02:58:08.744Z,13.90
2018-04-22T03:00:36.223Z,13.80
2018-04-22T03:03:03.679Z,13.80
2018-04-22T03:05:31.140Z,13.80
2018-04-22T03:07:58.597Z,13.80
2018-04-22T03:10:26.047Z,13.80
2018-04-22T03:12:53.501Z,13.80
2018-04-22T03:15:20.964Z,13.80
2018-04-22T03:17:48.410Z,13.90
2018-04-22T03:20:15.897Z,13.80
2018-04-22T03:22:43.331Z,13.70
2018-04-22T03:25:10.781Z,13.80
2018-04-22T03:27:38.223Z,13.80
2018-04-22T03:30:05.679Z,13.80
2018-04-22T03:32:33.132Z,13.90
2018-04-22T03:35:00.596Z,14.00
2018-04-22T03:37:28.049Z,14.10
2018-04-22T03:39:55.503Z,14.20
2018-04-22T03:42:22.950Z,14.10
2018-04-22T03:44:50.402Z,13.80
2018-04-22T03:47:17.859Z,13.60
2018-04-22T03:49:45.317Z,13.40
2018-04-22T03:52:12.793Z,13.40
2018-04-22T03:54:40.243Z,13.40
2018-04-22T03:57:07.701Z,13.40
2018-04-22T03:59:35.163Z,13.40
2018-04-22T04:02:02.617Z,13.10
2018-04-22T04:04:30.074Z,13.00
2018-04-22T04:06:57.537Z,13.00
2018-04-22T04:09:24.982Z,13.00
2018-04-22T04:11:52.432Z,12.90
2018-04-22T04:14:20.667Z,12.80
2018-04-22T04:16:48.121Z,13.00
2018-04-22T04:19:27.572Z,13.00
2018-04-22T04:22:07.492Z,13.10
2018-04-22T04:24:46.504Z,13.00
2018-04-22T04:30:21.160Z,12.90
2018-04-22T04:32:48.611Z,12.50
2018-04-22T04:35:16.072Z,12.50
2018-04-22T04:37:43.528Z,12.50
2018-04-22T04:40:11.185Z,12.60
2018-04-22T04:42:38.635Z,12.70
2018-04-22T04:45:06.100Z,12.80
2018-04-22T04:47:33.560Z,12.70
2018-04-22T04:50:01.016Z,12.60
2018-04-22T04:52:28.471Z,12.70
2018-04-22T04:54:55.944Z,12.90
2018-04-22T04:57:23.402Z,12.90
2018-04-22T04:59:50.850Z,13.00
2018-04-22T05:02:18.517Z,13.00
2018-04-22T05:04:46.003Z,13.10
2018-04-22T05:07:14.212Z,13.30
2018-04-22T05:09:41.676Z,13.30
2018-04-22T05:12:09.130Z,13.30
2018-04-22T05:14:36.582Z,13.10
2018-04-22T05:17:04.039Z,13.10
2018-04-22T05:19:31.513Z,13.20
2018-04-22T05:21:58.989Z,13.30
2018-04-22T05:24:26.439Z,13.50
2018-04-22T05:26:54.291Z,13.90
2018-04-22T05:29:22.136Z,13.70
2018-04-22T05:31:49.599Z,13.70
2018-04-22T05:34:17.062Z,13.70
2018-04-22T05:36:44.516Z,13.70
2018-04-22T05:39:11.971Z,13.80
2018-04-22T05:41:39.440Z,13.90
2018-04-22T05:44:06.896Z,14.20
2018-04-22T05:46:34.376Z,14.30
2018-04-22T05:49:01.832Z,14.60
2018-04-22T05:51:29.288Z,14.80
2018-04-22T05:53:56.740Z,15.00
2018-04-22T05:56:24.224Z,15.30
2018-04-22T05:58:52.467Z,15.70
2018-04-22T06:01:19.926Z,15.70
2018-04-22T06:03:47.386Z,16.00
2018-04-22T06:06:14.836Z,16.20
2018-04-22T06:08:42.289Z,16.40
2018-04-22T06:11:09.745Z,16.70
2018-04-22T06:13:37.201Z,16.90
2018-04-22T06:16:04.653Z,17.60
2018-04-22T06:18:32.103Z,17.20
2018-04-22T06:20:59.550Z,17.50
2018-04-22T06:23:27.007Z,17.80
2018-04-22T06:25:54.495Z,18.00
2018-04-22T06:28:21.992Z,18.20
2018-04-22T06:30:49.404Z,18.60
2018-04-22T06:33:16.855Z,18.90
2018-04-22T06:35:44.312Z,19.20
2018-04-22T06:38:11.777Z,19.50
2018-04-22T06:40:39.232Z,19.70
2018-04-22T06:43:06.687Z,20.20
2018-04-22T06:45:34.138Z,20.50
2018-04-22T06:48:02.350Z,21.20
2018-04-22T06:50:30.572Z,21.40
2018-04-22T06:52:58.023Z,21.40
2018-04-22T06:55:25.478Z,21.70
2018-04-22T06:57:52.931Z,21.80
2018-04-22T07:00:20.387Z,22.20
2018-04-22T07:02:47.838Z,22.50
2018-04-22T07:05:15.280Z,22.70
2018-04-22T07:07:42.725Z,22.90
2018-04-22T07:10:10.176Z,22.90
2018-04-22T07:12:38.396Z,23.30
2018-04-22T07:15:05.854Z,23.30
2018-04-22T07:17:33.316Z,23.40
2018-04-22T07:20:00.781Z,23.60
2018-04-22T07:22:28.239Z,23.80
2018-04-22T07:24:55.719Z,23.80
2018-04-22T07:27:23.193Z,24.20
2018-04-22T07:29:51.407Z,24.60
2018-04-22T07:32:18.961Z,24.50
2018-04-22T07:34:46.407Z,24.80
2018-04-22T07:37:13.873Z,24.90
2018-04-22T07:39:41.332Z,25.10
2018-04-22T07:42:08.788Z,25.30
2018-04-22T07:44:36.275Z,25.40
2018-04-22T07:47:03.700Z,25.50
2018-04-22T07:49:31.156Z,25.50
2018-04-22T07:51:58.614Z,25.60
2018-04-22T07:54:26.089Z,25.50
2018-04-22T07:56:53.551Z,25.70
2018-04-22T07:59:21.014Z,25.80
2018-04-22T08:01:48.473Z,26.00
2018-04-22T08:04:15.924Z,26.30
2018-04-22T08:06:43.389Z,26.40
2018-04-22T08:09:10.836Z,26.60
2018-04-22T08:11:38.291Z,26.70
2018-04-22T08:14:05.744Z,27.00
2018-04-22T08:16:33.214Z,27.10
2018-04-22T08:19:00.667Z,27.10
2018-04-22T08:21:28.132Z,27.20
2018-04-22T08:23:55.577Z,27.30
2018-04-22T08:26:23.044Z,27.50
2018-04-22T08:28:50.500Z,27.60
2018-04-22T08:31:17.950Z,27.60
2018-04-22T08:33:45.412Z,27.60
2018-04-22T08:36:12.858Z,27.70
2018-04-22T08:38:40.315Z,27.90
2018-04-22T08:41:07.761Z,27.90
2018-04-22T08:43:35.219Z,27.90
2018-04-22T08:46:02.691Z,27.90
2018-04-22T08:48:30.148Z,28.10
2018-04-22T08:50:57.592Z,28.20
2018-04-22T08:53:25.053Z,28.30
2018-04-22T08:55:52.555Z,28.30
2018-04-22T08:58:20.726Z,28.50
2018-04-22T09:00:49.181Z,28.40
2018-04-22T09:03:16.628Z,28.40
2018-04-22T09:05:44.079Z,28.50
2018-04-22T09:08:11.532Z,28.60
2018-04-22T09:10:39.004Z,28.50
2018-04-22T09:13:06.470Z,28.70
2018-04-22T09:15:33.916Z,28.70
2018-04-22T09:18:01.362Z,28.70
2018-04-22T09:20:28.812Z,28.80
2018-04-22T09:22:56.267Z,28.90
2018-04-22T09:25:23.707Z,28.90
2018-04-22T09:27:51.164Z,29.00
2018-04-22T09:30:18.623Z,29.10
2018-04-22T09:32:46.084Z,29.30
2018-04-22T09:35:13.539Z,29.40
2018-04-22T09:37:40.995Z,29.50
2018-04-22T09:40:08.456Z,29.50
2018-04-22T09:42:35.927Z,29.50
2018-04-22T09:45:03.386Z,29.50
2018-04-22T09:47:30.849Z,29.60
2018-04-22T09:49:58.369Z,29.70
2018-04-22T09:52:25.793Z,29.80
2018-04-22T09:54:54.021Z,29.80
2018-04-22T09:57:21.500Z,29.80
2018-04-22T09:59:48.959Z,29.70
2018-04-22T10:02:16.423Z,29.90
2018-04-22T10:04:47.379Z,29.90
2018-04-22T10:07:15.619Z,30.00
2018-04-22T10:09:43.067Z,30.00
2018-04-22T10:12:10.532Z,30.00
2018-04-22T10:14:37.971Z,30.30
2018-04-22T10:17:05.433Z,30.50
2018-04-22T10:19:32.875Z,30.50
2018-04-22T10:22:00.343Z,30.70
2018-04-22T10:24:27.792Z,30.60
2018-04-22T10:26:55.241Z,30.60
2018-04-22T10:29:22.716Z,30.50
2018-04-22T10:31:50.163Z,30.50
2018-04-22T10:34:17.620Z,30.70
2018-04-22T10:36:45.708Z,30.80
2018-04-22T10:39:13.162Z,30.70
2018-04-22T10:41:40.613Z,30.70
2018-04-22T10:44:08.108Z,30.60
2018-04-22T10:46:35.557Z,30.40
2018-04-22T10:49:03.017Z,30.50
2018-04-22T10:51:30.475Z,30.70
2018-04-22T10:53:57.919Z,30.60
2018-04-22T10:56:25.385Z,30.60
2018-04-22T10:58:52.832Z,30.80
2018-04-22T11:01:20.292Z,30.70
2018-04-22T11:03:47.737Z,30.60
2018-04-22T11:06:15.194Z,30.60
2018-04-22T11:08:42.643Z,30.60
2018-04-22T11:11:10.097Z,30.60
2018-04-22T11:13:37.556Z,30.60
2018-04-22T11:16:05.014Z,30.60
2018-04-22T11:18:32.473Z,30.50
2018-04-22T11:20:59.916Z,30.50
2018-04-22T11:23:27.358Z,30.50
2018-04-22T11:25:54.809Z,30.50
2018-04-22T11:28:22.272Z,30.60
2018-04-22T11:30:49.737Z,30.50
2018-04-22T11:33:17.228Z,30.50
2018-04-22T11:35:44.676Z,30.50
2018-04-22T11:38:12.124Z,30.30
2018-04-22T11:40:39.575Z,30.30
2018-04-22T11:43:07.041Z,30.40
2018-04-22T11:45:34.488Z,30.20
2018-04-22T11:48:01.941Z,30.20
2018-04-22T11:50:29.394Z,30.30
2018-04-22T11:52:56.838Z,30.50
2018-04-22T11:55:24.285Z,30.60
2018-04-22T11:57:51.730Z,30.50
2018-04-22T12:00:19.179Z,30.70
2018-04-22T12:02:50.427Z,30.40
2018-04-22T12:05:18.643Z,30.50
2018-04-22T12:07:46.089Z,30.40
2018-04-22T12:10:13.565Z,30.40
2018-04-22T12:12:41.046Z,30.30
2018-04-22T12:15:08.507Z,30.30
2018-04-22T12:17:35.972Z,30.30
2018-04-22T12:20:03.404Z,30.30
2018-04-22T12:22:30.860Z,30.10
2018-04-22T12:24:59.212Z,29.90
2018-04-22T12:27:26.663Z,29.70
2018-04-22T12:29:54.104Z,29.70
2018-04-22T12:32:21.557Z,29.70
2018-04-22T12:34:49.004Z,29.80
2018-04-22T12:37:16.456Z,29.80
2018-04-22T12:39:44.668Z,30.10
2018-04-22T12:42:12.114Z,30.00
2018-04-22T12:44:39.552Z,30.00
2018-04-22T12:47:07.003Z,30.10
2018-04-22T12:49:35.241Z,30.10
2018-04-22T12:52:02.683Z,30.00
2018-04-22T12:54:30.138Z,30.00
2018-04-22T12:56:57.579Z,30.00
2018-04-22T12:59:25.051Z,30.00
2018-04-22T13:01:52.499Z,30.00
2018-04-22T13:04:19.952Z,30.00
2018-04-22T13:06:47.424Z,30.10
2018-04-22T13:09:14.867Z,30.00
2018-04-22T13:11:42.309Z,29.90
2018-04-22T13:14:09.817Z,29.60
2018-04-22T13:16:37.236Z,29.80
2018-04-22T13:19:04.681Z,29.90
2018-04-22T13:21:32.138Z,29.90
2018-04-22T13:23:59.600Z,29.70
2018-04-22T13:26:27.051Z,29.60
2018-04-22T13:28:54.509Z,29.50
2018-04-22T13:31:21.976Z,29.40
2018-04-22T13:33:49.422Z,29.40
2018-04-22T13:36:16.881Z,29.40
2018-04-22T13:38:44.324Z,29.40
2018-04-22T13:41:11.787Z,29.30
2018-04-22T13:43:39.244Z,29.20
2018-04-22T13:46:06.699Z,29.10
2018-04-22T13:48:34.151Z,29.20
2018-04-22T13:51:01.662Z,29.40
2018-04-22T13:53:29.119Z,29.40
2018-04-22T13:55:56.575Z,29.40
2018-04-22T13:58:24.028Z,29.40
2018-04-22T14:00:51.489Z,29.40
2018-04-22T14:03:18.938Z,29.40
2018-04-22T14:05:46.384Z,29.40
2018-04-22T14:08:13.839Z,29.30
2018-04-22T14:10:41.289Z,29.30
2018-04-22T14:13:08.742Z,29.30
2018-04-22T14:15:36.191Z,29.30
2018-04-22T14:18:03.640Z,29.20
2018-04-22T14:20:31.082Z,29.10
2018-04-22T14:22:58.535Z,29.10
2018-04-22T14:25:25.991Z,28.90
2018-04-22T14:27:53.449Z,28.90
2018-04-22T14:30:20.913Z,28.90
2018-04-22T14:32:48.363Z,29.00
2018-04-22T14:35:15.815Z,28.90
2018-04-22T14:37:43.271Z,29.00
2018-04-22T14:40:10.726Z,28.90
2018-04-22T14:42:38.186Z,28.90
2018-04-22T14:45:17.518Z,28.90
2018-04-22T14:47:44.971Z,29.00
2018-04-22T14:50:12.424Z,29.00
2018-04-22T14:52:39.875Z,29.00
2018-04-22T14:55:08.102Z,28.70
2018-04-22T14:57:35.547Z,28.60
2018-04-22T15:00:03.051Z,28.70
2018-04-22T15:02:31.272Z,28.80
2018-04-22T15:04:58.720Z,28.70
2018-04-22T15:07:26.171Z,28.90
2018-04-22T15:09:53.633Z,28.80
2018-04-22T15:12:21.078Z,28.80
2018-04-22T15:14:48.523Z,28.90
2018-04-22T15:17:16.745Z,28.90
2018-04-22T15:19:45.004Z,28.90
2018-04-22T15:22:12.474Z,28.90
2018-04-22T15:24:39.936Z,28.90
2018-04-22T15:27:07.392Z,28.70
2018-04-22T15:29:35.605Z,28.60
2018-04-22T15:32:03.831Z,28.70
2018-04-22T15:34:31.282Z,28.60
2018-04-22T15:36:58.748Z,28.70
2018-04-22T15:39:26.198Z,28.60
2018-04-22T15:41:53.661Z,28.60
2018-04-22T15:44:21.104Z,28.70
2018-04-22T15:46:48.568Z,28.80
2018-04-22T15:49:16.028Z,28.80
2018-04-22T15:51:43.510Z,28.70
2018-04-22T15:54:10.929Z,28.50
2018-04-22T15:56:38.380Z,28.50
2018-04-22T15:59:05.837Z,28.50
2018-04-22T16:01:33.284Z,28.50
2018-04-22T16:04:00.734Z,28.50
2018-04-22T16:06:28.191Z,28.40
2018-04-22T16:08:56.412Z,28.50
2018-04-22T16:11:23.872Z,28.40
2018-04-22T16:13:51.329Z,28.50
2018-04-22T16:16:19.539Z,28.20
2018-04-22T16:18:47.757Z,28.40
2018-04-22T16:21:15.242Z,28.30
2018-04-22T16:23:42.686Z,28.40
2018-04-22T16:26:10.166Z,28.30
2018-04-22T16:28:37.630Z,28.30
2018-04-22T16:31:05.078Z,28.40
2018-04-22T16:33:32.540Z,28.40
2018-04-22T16:35:59.990Z,28.30
2018-04-22T16:38:28.358Z,28.30
2018-04-22T16:40:55.805Z,28.20
2018-04-22T16:43:23.265Z,28.20
2018-04-22T16:45:50.724Z,28.20
2018-04-22T16:48:18.183Z,28.20
2018-04-22T16:50:45.631Z,28.10
2018-04-22T16:53:13.089Z,28.10
2018-04-22T16:55:40.569Z,28.10
2018-04-22T16:58:08.004Z,28.10
2018-04-22T17:00:35.461Z,28.00
2018-04-22T17:03:02.928Z,28.00
2018-04-22T17:05:30.381Z,27.90
2018-04-22T17:07:57.832Z,27.80
2018-04-22T17:10:25.287Z,27.90
2018-04-22T17:12:52.738Z,27.90
2018-04-22T17:15:20.175Z,27.80
2018-04-22T17:17:47.632Z,27.80
2018-04-22T17:20:15.855Z,27.60
2018-04-22T17:22:43.304Z,27.60
2018-04-22T17:25:10.766Z,27.50
2018-04-22T17:27:38.225Z,27.40
2018-04-22T17:30:05.672Z,27.40
2018-04-22T17:32:33.127Z,27.40
2018-04-22T17:35:00.580Z,27.40
2018-04-22T17:37:28.035Z,27.30
2018-04-22T17:39:55.492Z,27.30
2018-04-22T17:42:22.952Z,27.20
2018-04-22T17:44:50.419Z,27.10
2018-04-22T17:47:17.890Z,27.00
2018-04-22T17:49:46.108Z,26.80
2018-04-22T17:52:13.560Z,26.80
2018-04-22T17:54:41.024Z,26.70
2018-04-22T17:57:08.483Z,26.50
2018-04-22T17:59:36.701Z,26.10
2018-04-22T18:02:04.928Z,25.70
2018-04-22T18:04:32.377Z,25.60
2018-04-22T18:06:59.833Z,25.50
2018-04-22T18:09:27.277Z,25.10
2018-04-22T18:11:55.513Z,24.70
2018-04-22T18:14:23.703Z,24.60
2018-04-22T18:16:51.103Z,24.50
2018-04-22T18:19:18.567Z,24.30
2018-04-22T18:21:46.024Z,24.40
2018-04-22T18:24:13.477Z,23.90
2018-04-22T18:26:40.918Z,23.80
2018-04-22T18:29:08.383Z,23.70
2018-04-22T18:31:35.835Z,23.60
2018-04-22T18:34:03.296Z,23.40
2018-04-22T18:36:30.757Z,23.20
2018-04-22T18:38:58.220Z,23.20
2018-04-22T18:41:25.688Z,23.10
2018-04-22T18:43:53.142Z,22.80
2018-04-22T18:46:20.591Z,22.60
2018-04-22T18:48:48.847Z,22.20
2018-04-22T18:51:16.309Z,22.10
2018-04-22T18:53:43.759Z,22.10
2018-04-22T18:56:11.200Z,21.90
2018-04-22T18:58:38.656Z,21.70
2018-04-22T19:01:06.107Z,21.70
2018-04-22T19:03:33.572Z,21.40
2018-04-22T19:06:01.079Z,21.20
2018-04-22T19:08:28.508Z,21.10
2018-04-22T19:10:55.967Z,21.00
2018-04-22T19:13:23.414Z,20.80
2018-04-22T19:15:50.868Z,20.70
2018-04-22T19:18:18.320Z,20.50
2018-04-22T19:20:45.776Z,20.50
2018-04-22T19:23:13.219Z,20.30
2018-04-22T19:25:40.688Z,20.30
2018-04-22T19:28:08.137Z,20.20
2018-04-22T19:30:36.361Z,20.00
2018-04-22T19:33:03.807Z,19.90
2018-04-22T19:35:31.257Z,19.90
2018-04-22T19:37:58.723Z,19.90
2018-04-22T19:40:26.168Z,19.90
2018-04-22T19:42:53.620Z,19.70
2018-04-22T19:45:21.066Z,19.70
2018-04-22T19:47:48.519Z,19.60
2018-04-22T19:50:15.957Z,19.60
2018-04-22T19:52:43.405Z,19.50
2018-04-22T19:55:16.151Z,19.30
2018-04-22T19:57:43.601Z,19.30
2018-04-22T20:00:11.917Z,19.20
2018-04-22T20:02:40.131Z,19.20
2018-04-22T20:05:07.575Z,19.20
2018-04-22T20:07:35.033Z,19.20
2018-04-22T20:10:02.486Z,19.10
2018-04-22T20:12:29.937Z,19.00
2018-04-22T20:14:57.391Z,19.00
2018-04-22T20:17:24.844Z,19.00
2018-04-22T20:19:52.296Z,18.90
2018-04-22T20:22:19.752Z,18.80
2018-04-22T20:24:47.207Z,18.70
2018-04-22T20:27:14.657Z,18.70
2018-04-22T20:29:42.874Z,18.70
2018-04-22T20:32:10.321Z,18.60
2018-04-22T20:34:37.776Z,18.70
2018-04-22T20:37:05.454Z,18.60
2018-04-22T20:39:33.715Z,18.80
2018-04-22T20:42:01.171Z,18.70
2018-04-22T20:44:28.627Z,18.80
2018-04-22T20:46:56.079Z,18.80
2018-04-22T20:49:23.546Z,18.80
2018-04-22T20:51:51.000Z,18.80
2018-04-22T20:54:18.449Z,18.70
2018-04-22T20:56:45.905Z,18.60
2018-04-22T20:59:13.359Z,18.50
2018-04-22T21:01:40.818Z,18.40
2018-04-22T21:04:08.271Z,18.40
2018-04-22T21:06:35.733Z,18.40
2018-04-22T21:09:03.199Z,18.30
2018-04-22T21:11:30.652Z,18.30
2018-04-22T21:13:58.110Z,18.20
2018-04-22T21:16:25.563Z,18.00
2018-04-22T21:18:53.011Z,17.80
2018-04-22T21:21:20.477Z,17.70
2018-04-22T21:23:47.936Z,17.70
2018-04-22T21:26:15.392Z,17.70
2018-04-22T21:28:42.879Z,17.60
2018-04-22T21:31:10.318Z,17.60
2018-04-22T21:33:37.777Z,17.50
2018-04-22T21:36:05.232Z,17.60
2018-04-22T21:38:32.696Z,17.50
2018-04-22T21:41:00.167Z,17.50
2018-04-22T21:43:27.612Z,17.50
2018-04-22T21:45:55.070Z,17.50
2018-04-22T21:48:22.521Z,17.40
2018-04-22T21:50:49.977Z,17.40
2018-04-22T21:53:17.426Z,17.30
2018-04-22T21:55:44.880Z,17.20
2018-04-22T21:58:13.101Z,17.10
2018-04-22T22:00:40.546Z,17.00
2018-04-22T22:03:08.002Z,17.00
2018-04-22T22:05:35.447Z,17.10
2018-04-22T22:08:02.904Z,17.10
2018-04-22T22:10:30.356Z,17.10
2018-04-22T22:12:57.811Z,17.10
2018-04-22T22:15:25.264Z,17.20
2018-04-22T22:17:52.711Z,17.20
2018-04-22T22:20:20.150Z,17.20
2018-04-22T22:22:47.609Z,17.20
2018-04-22T22:25:15.060Z,17.10
2018-04-22T22:27:42.512Z,17.10
2018-04-22T22:30:09.966Z,17.10
2018-04-22T22:32:37.497Z,16.90
2018-04-22T22:35:05.714Z,17.20
2018-04-22T22:37:33.177Z,17.10
2018-04-22T22:40:00.619Z,17.20
2018-04-22T22:42:28.062Z,17.20
2018-04-22T22:44:55.527Z,17.20
2018-04-22T22:47:22.971Z,17.20
2018-04-22T22:49:50.431Z,17.20
2018-04-22T22:52:18.012Z,17.00
2018-04-22T22:54:45.464Z,16.90
2018-04-22T22:57:12.915Z,16.80
2018-04-22T22:59:40.380Z,16.80
2018-04-22T23:02:07.828Z,16.80
2018-04-22T23:04:35.287Z,16.60
2018-04-22T23:07:02.739Z,16.50
2018-04-22T23:09:30.196Z,16.40
2018-04-22T23:11:57.654Z,16.40
2018-04-22T23:14:25.113Z,16.30
2018-04-22T23:16:52.572Z,16.30
2018-04-22T23:19:20.023Z,16.40
2018-04-22T23:21:47.474Z,16.40
2018-04-22T23:24:14.925Z,16.30
2018-04-22T23:26:42.380Z,16.30
2018-04-22T23:29:09.829Z,16.20
2018-04-22T23:31:37.283Z,16.30
2018-04-22T23:34:05.496Z,16.40
2018-04-22T23:36:32.953Z,16.30
2018-04-22T23:39:00.399Z,16.40
2018-04-22T23:41:27.853Z,16.50
2018-04-22T23:43:55.331Z,16.50
2018-04-22T23:46:22.779Z,16.50
2018-04-22T23:48:50.247Z,16.40
2018-04-22T23:51:17.705Z,16.40
2018-04-22T23:53:45.157Z,16.40
2018-04-22T23:56:12.609Z,16.40
2018-04-22T23:58:40.048Z,16.40
